Tusayan, Arizona
Current Conditions -  °F | °C
As of 8:54 AM on Sunday 23 Nov 2014 (Local Time) from KGCN Reporting Station
Clear Clear  
Wind Chill: 32°   Ceiling: Unl
Heat Index: 38°   Visibility: 10mi
Dew Point:   Wind: 8mph
Humidity: 28%   Direction: 360°N
Pressure: 30.14"   Gusts: 18mph
Location:  36.0547°N, 112.138°W
Report Text: KGCN 231554Z 36007G16KT 10SM CLR 03/M14 A3014 RMK AO2 SLP182 T00331139
Loading
Personal Weather Stations






























Interactive Weather Map New forecast layout! Learn more

10-Day Weather Forecast

Advertisements
Track Severe Weather on mobile